Time;durP1;ratioP1;P1;durP2;ratioP2;P2;SDS_P1;SDS_P2;PMS_P1;PMS_P2;Temp;Humidity;BMP_temperature;BMP_pressure;BME280_temperature;BME280_humidity;BME280_pressure;Samples;Min_cycle;Max_cycle;Signal;HPM_P1;HPM_P2
2024/04/05 00:00:48;;;;;;;0.70;0.52;;;;;;;;;;4972130;28;20105;-77
2024/04/05 00:03:14;;;;;;;1.00;0.50;;;;;;;;;;4978082;28;20015;-76
2024/04/05 00:05:41;;;;;;;0.47;0.30;;;;;;;;;;4986487;28;20030;-75
2024/04/05 00:08:07;;;;;;;0.68;0.40;;;;;;;;;;4985794;28;20022;-75
2024/04/05 00:10:33;;;;;;;0.40;0.40;;;;;;;;;;4982086;28;20015;-76
2024/04/05 00:12:59;;;;;;;1.20;0.70;;;;;;;;;;4965672;28;20023;-77
2024/04/05 00:15:25;;;;;;;0.57;0.50;;;;;;;;;;4974177;28;20030;-76
2024/04/05 00:17:52;;;;;;;0.57;0.50;;;;;;;;;;4972566;28;20032;-77
2024/04/05 00:20:18;;;;;;;0.40;0.38;;;;;;;;;;4974243;28;20023;-77
2024/04/05 00:22:44;;;;;;;0.90;0.47;;;;;;;;;;4981172;28;20101;-76
2024/04/05 00:25:10;;;;;;;0.45;0.45;;;;;;;;;;4993001;28;20063;-76
2024/04/05 00:27:36;;;;;;;0.25;0.25;;;;;;;;;;5002900;28;20022;-77
2024/04/05 00:30:03;;;;;;;0.47;0.47;;;;;;;;;;4995793;28;20042;-75
2024/04/05 00:32:32;;;;;;;0.20;0.20;;;;;;;;;;4992180;28;20018;-76
2024/04/05 00:34:59;;;;;;;0.10;0.10;;;;;;;;;;4979553;28;20066;-76
2024/04/05 00:37:25;;;;;;;0.45;0.45;;;;;;;;;;4994494;28;20018;-76
2024/04/05 00:39:53;;;;;;;0.60;0.50;;;;;;;;;;4988699;28;20022;-77
2024/04/05 00:42:20;;;;;;;0.40;0.40;;;;;;;;;;4980138;28;20126;-76
2024/04/05 00:44:49;;;;;;;0.32;0.32;;;;;;;;;;4979509;28;20078;-76
2024/04/05 00:47:15;;;;;;;0.73;0.47;;;;;;;;;;4981202;28;20030;-77
2024/04/05 00:49:41;;;;;;;0.40;0.40;;;;;;;;;;4979733;28;20099;-77
2024/04/05 00:52:09;;;;;;;0.45;0.40;;;;;;;;;;4978490;28;20031;-76
2024/04/05 00:54:35;;;;;;;0.60;0.45;;;;;;;;;;4977875;28;20120;-76
2024/04/05 00:57:01;;;;;;;0.30;0.30;;;;;;;;;;4982537;28;20052;-77
2024/04/05 00:59:28;;;;;;;0.70;0.50;;;;;;;;;;4977827;28;20393;-77
2024/04/05 01:01:54;;;;;;;0.73;0.50;;;;;;;;;;4961254;28;20026;-76
2024/04/05 01:04:20;;;;;;;0.20;0.20;;;;;;;;;;4978922;28;20027;-77
2024/04/05 01:06:47;;;;;;;0.28;0.28;;;;;;;;;;4973060;28;20109;-77
2024/04/05 01:09:13;;;;;;;0.40;0.40;;;;;;;;;;4985237;28;20019;-77
2024/04/05 01:11:39;;;;;;;0.88;0.50;;;;;;;;;;4981307;28;20070;-77
2024/04/05 01:14:06;;;;;;;0.40;0.40;;;;;;;;;;4980779;28;20086;-77
2024/04/05 01:16:32;;;;;;;0.30;0.30;;;;;;;;;;4971055;28;20023;-76
2024/04/05 01:18:58;;;;;;;0.20;0.20;;;;;;;;;;4978508;28;20022;-78
2024/04/05 01:21:27;;;;;;;0.30;0.30;;;;;;;;;;4968004;28;20493;-77
2024/04/05 01:23:54;;;;;;;0.20;0.20;;;;;;;;;;4970872;28;20110;-77
2024/04/05 01:26:20;;;;;;;0.30;0.30;;;;;;;;;;4977688;28;20038;-77
2024/04/05 01:28:46;;;;;;;0.30;0.30;;;;;;;;;;4980006;28;20103;-77
2024/04/05 01:31:13;;;;;;;0.50;0.30;;;;;;;;;;4978785;28;20023;-76
2024/04/05 01:33:39;;;;;;;0.30;0.30;;;;;;;;;;4977565;28;20110;-77
2024/04/05 01:36:05;;;;;;;0.35;0.30;;;;;;;;;;4976854;28;20436;-77
2024/04/05 01:38:31;;;;;;;0.35;0.35;;;;;;;;;;4976814;28;20027;-77
2024/04/05 01:40:57;;;;;;;0.65;0.30;;;;;;;;;;4972376;28;20070;-77
2024/04/05 01:43:23;;;;;;;0.45;0.40;;;;;;;;;;4973504;28;20025;-77
2024/04/05 01:45:49;;;;;;;0.60;0.35;;;;;;;;;;4975925;28;20106;-77
2024/04/05 01:48:16;;;;;;;0.50;0.45;;;;;;;;;;4981365;28;20118;-77
2024/04/05 01:50:42;;;;;;;0.77;0.40;;;;;;;;;;4966731;28;20089;-76
2024/04/05 01:53:08;;;;;;;0.50;0.50;;;;;;;;;;4978401;28;20029;-77
2024/04/05 01:55:34;;;;;;;0.30;0.30;;;;;;;;;;4976069;28;20490;-77
2024/04/05 01:58:01;;;;;;;0.20;0.20;;;;;;;;;;4976501;28;20082;-77
2024/04/05 02:00:28;;;;;;;0.40;0.40;;;;;;;;;;4984385;28;20030;-77
2024/04/05 02:02:54;;;;;;;0.63;0.35;;;;;;;;;;4977763;28;20042;-77
2024/04/05 02:05:21;;;;;;;0.30;0.30;;;;;;;;;;4964586;28;20034;-77
2024/04/05 02:07:47;;;;;;;0.40;0.30;;;;;;;;;;4969598;28;20030;-77
2024/04/05 02:10:13;;;;;;;0.47;0.40;;;;;;;;;;4975510;28;20027;-77
2024/04/05 02:12:39;;;;;;;0.50;0.30;;;;;;;;;;4975791;28;20116;-76
2024/04/05 02:15:05;;;;;;;0.45;0.45;;;;;;;;;;4972082;28;20023;-76
2024/04/05 02:17:31;;;;;;;0.55;0.52;;;;;;;;;;4975793;28;20055;-76
2024/04/05 02:19:57;;;;;;;0.30;0.30;;;;;;;;;;4976505;28;20026;-76
2024/04/05 02:22:24;;;;;;;0.30;0.30;;;;;;;;;;4977737;28;20029;-76
2024/04/05 02:24:50;;;;;;;1.60;0.30;;;;;;;;;;4980738;28;20018;-76
2024/04/05 02:27:16;;;;;;;0.47;0.47;;;;;;;;;;4977426;28;20147;-76
2024/04/05 02:29:42;;;;;;;0.35;0.30;;;;;;;;;;4979922;28;20169;-76
2024/04/05 02:32:08;;;;;;;0.40;0.40;;;;;;;;;;4981316;28;20128;-76
2024/04/05 02:34:34;;;;;;;0.30;0.30;;;;;;;;;;4966670;28;20054;-76
2024/04/05 02:37:01;;;;;;;0.30;0.30;;;;;;;;;;4975257;28;20030;-77
2024/04/05 02:39:27;;;;;;;0.40;0.40;;;;;;;;;;4976228;28;20101;-76
2024/04/05 02:41:53;;;;;;;0.38;0.38;;;;;;;;;;4982171;28;20029;-77
2024/04/05 02:44:23;;;;;;;0.40;0.40;;;;;;;;;;4974877;28;20516;-76
2024/04/05 02:46:49;;;;;;;0.22;0.22;;;;;;;;;;4966953;28;20026;-76
2024/04/05 02:49:15;;;;;;;0.30;0.30;;;;;;;;;;4975104;28;20023;-77
2024/04/05 02:51:41;;;;;;;0.47;0.47;;;;;;;;;;4974686;28;20049;-76
2024/04/05 02:54:07;;;;;;;0.30;0.30;;;;;;;;;;4969008;28;20026;-76
2024/04/05 02:56:33;;;;;;;0.30;0.30;;;;;;;;;;4972174;28;20489;-76
2024/04/05 02:58:59;;;;;;;0.40;0.40;;;;;;;;;;4974964;28;20031;-76
2024/04/05 03:01:25;;;;;;;1.13;0.30;;;;;;;;;;4974875;28;20027;-76
2024/04/05 03:03:52;;;;;;;1.80;0.40;;;;;;;;;;4977110;28;20033;-76
2024/04/05 03:06:19;;;;;;;0.43;0.43;;;;;;;;;;4974947;28;20027;-76
2024/04/05 03:08:45;;;;;;;0.57;0.57;;;;;;;;;;4975793;28;20030;-78
2024/04/05 03:11:11;;;;;;;0.20;0.20;;;;;;;;;;4983044;28;20026;-77
2024/04/05 03:13:38;;;;;;;0.40;0.40;;;;;;;;;;4977633;28;20102;-77
2024/04/05 03:16:05;;;;;;;0.50;0.50;;;;;;;;;;4976805;28;20041;-79
2024/04/05 03:18:31;;;;;;;0.40;0.40;;;;;;;;;;4951235;28;20061;-77
2024/04/05 03:20:58;;;;;;;0.47;0.40;;;;;;;;;;4977192;28;20022;-78
2024/04/05 03:23:24;;;;;;;0.40;0.32;;;;;;;;;;4967752;28;20027;-77
2024/04/05 03:25:50;;;;;;;0.35;0.35;;;;;;;;;;4967704;28;20106;-77
2024/04/05 03:28:16;;;;;;;0.40;0.40;;;;;;;;;;4980797;28;20383;-78
2024/04/05 03:30:42;;;;;;;0.38;0.35;;;;;;;;;;4968960;28;20443;-76
2024/04/05 03:33:08;;;;;;;0.47;0.47;;;;;;;;;;4984484;28;20019;-77
2024/04/05 03:35:38;;;;;;;1.25;0.40;;;;;;;;;;4975042;28;20084;-77
2024/04/05 03:38:04;;;;;;;0.40;0.40;;;;;;;;;;4988986;28;20011;-78
2024/04/05 03:40:30;;;;;;;0.80;0.30;;;;;;;;;;4994587;28;20026;-78
2024/04/05 03:42:56;;;;;;;0.40;0.40;;;;;;;;;;4995357;28;20023;-79
2024/04/05 03:45:22;;;;;;;0.30;0.30;;;;;;;;;;4994651;28;20035;-78
2024/04/05 03:47:48;;;;;;;0.30;0.30;;;;;;;;;;4995567;28;20094;-79
2024/04/05 03:50:15;;;;;;;0.45;0.20;;;;;;;;;;4990470;28;20149;-79
2024/04/05 03:52:41;;;;;;;0.50;0.50;;;;;;;;;;4991099;28;20039;-77
2024/04/05 03:55:07;;;;;;;0.30;0.30;;;;;;;;;;4964398;28;20062;-77
2024/04/05 03:57:33;;;;;;;0.25;0.20;;;;;;;;;;4976836;28;20023;-77
2024/04/05 03:59:59;;;;;;;0.30;0.30;;;;;;;;;;4977644;28;20034;-78
2024/04/05 04:02:26;;;;;;;0.55;0.20;;;;;;;;;;4987317;28;20105;-78
2024/04/05 04:04:52;;;;;;;0.40;0.40;;;;;;;;;;4972236;28;20027;-77
2024/04/05 04:07:21;;;;;;;0.20;0.20;;;;;;;;;;4991907;28;20027;-77
2024/04/05 04:09:48;;;;;;;0.43;0.43;;;;;;;;;;4999202;28;20027;-77
2024/04/05 04:12:14;;;;;;;0.30;0.30;;;;;;;;;;4997120;28;20019;-79
2024/04/05 04:14:43;;;;;;;0.30;0.30;;;;;;;;;;4983075;28;20027;-78
2024/04/05 04:17:09;;;;;;;0.20;0.20;;;;;;;;;;4981584;28;20121;-78
2024/04/05 04:19:36;;;;;;;0.28;0.28;;;;;;;;;;4975257;28;20031;-77
2024/04/05 04:22:03;;;;;;;0.30;0.30;;;;;;;;;;4984840;28;20055;-77
2024/04/05 04:24:29;;;;;;;0.30;0.30;;;;;;;;;;4990848;28;20037;-77
2024/04/05 04:26:56;;;;;;;0.30;0.30;;;;;;;;;;4999349;28;20027;-76
2024/04/05 04:29:22;;;;;;;0.82;0.30;;;;;;;;;;5000980;28;20029;-76
2024/04/05 04:31:48;;;;;;;0.30;0.30;;;;;;;;;;4994744;28;20058;-77
2024/04/05 04:34:14;;;;;;;0.68;0.30;;;;;;;;;;4973932;28;20142;-76
2024/04/05 04:36:40;;;;;;;0.47;0.45;;;;;;;;;;4972316;28;20489;-76
2024/04/05 04:39:08;;;;;;;0.32;0.32;;;;;;;;;;4983497;28;20153;-77
2024/04/05 04:41:34;;;;;;;0.40;0.40;;;;;;;;;;4964012;28;20029;-76
2024/04/05 04:44:00;;;;;;;0.30;0.30;;;;;;;;;;4962103;28;20027;-77
2024/04/05 04:46:27;;;;;;;0.52;0.52;;;;;;;;;;4976332;28;20086;-77
2024/04/05 04:48:53;;;;;;;0.40;0.38;;;;;;;;;;4973418;28;20393;-77
2024/04/05 04:51:19;;;;;;;0.30;0.20;;;;;;;;;;4993437;28;20050;-77
2024/04/05 04:53:45;;;;;;;0.17;0.17;;;;;;;;;;4998271;28;20036;-82
2024/04/05 04:56:12;;;;;;;0.70;0.50;;;;;;;;;;4998486;28;20030;-77
2024/04/05 04:58:38;;;;;;;0.40;0.40;;;;;;;;;;4998701;28;20074;-77
2024/04/05 05:01:05;;;;;;;0.68;0.35;;;;;;;;;;5001390;28;20084;-77
2024/04/05 05:03:31;;;;;;;1.13;0.38;;;;;;;;;;4999879;28;20022;-77
2024/04/05 05:05:57;;;;;;;0.28;0.28;;;;;;;;;;5000610;28;20058;-78
2024/04/05 05:08:23;;;;;;;0.35;0.35;;;;;;;;;;4990136;28;20050;-77
2024/04/05 05:10:50;;;;;;;0.20;0.20;;;;;;;;;;4989506;28;20434;-77
2024/04/05 05:13:16;;;;;;;0.50;0.50;;;;;;;;;;4981336;28;20018;-77
2024/04/05 05:15:44;;;;;;;0.43;0.43;;;;;;;;;;4980817;28;20027;-77
2024/04/05 05:18:10;;;;;;;0.30;0.30;;;;;;;;;;4982932;28;20026;-77
2024/04/05 05:20:37;;;;;;;0.47;0.47;;;;;;;;;;4994094;23;20049;-78
2024/04/05 05:23:05;;;;;;;0.30;0.25;;;;;;;;;;5018758;28;20030;-78
2024/04/05 05:25:31;;;;;;;0.28;0.28;;;;;;;;;;5018337;28;20105;-78
2024/04/05 05:27:57;;;;;;;0.40;0.40;;;;;;;;;;5013346;28;20031;-78
2024/04/05 05:30:23;;;;;;;0.40;0.40;;;;;;;;;;5008928;28;20526;-78
2024/04/05 05:32:49;;;;;;;0.50;0.50;;;;;;;;;;5025112;28;20481;-78
2024/04/05 05:35:15;;;;;;;0.20;0.20;;;;;;;;;;5035339;28;20018;-78
2024/04/05 05:37:41;;;;;;;0.30;0.30;;;;;;;;;;5019502;28;20137;-79
2024/04/05 05:40:08;;;;;;;0.40;0.40;;;;;;;;;;5012489;28;20057;-79
2024/04/05 05:42:34;;;;;;;0.10;0.10;;;;;;;;;;5014260;28;20014;-79
2024/04/05 05:45:00;;;;;;;0.30;0.30;;;;;;;;;;5018419;28;20018;-79
2024/04/05 05:47:27;;;;;;;0.30;0.30;;;;;;;;;;5015914;28;20018;-78
2024/04/05 05:49:53;;;;;;;0.32;0.32;;;;;;;;;;5028314;28;20020;-79
2024/04/05 05:52:19;;;;;;;0.35;0.35;;;;;;;;;;5031797;28;20048;-79
2024/04/05 05:54:45;;;;;;;0.25;0.25;;;;;;;;;;5003108;28;20089;-80
2024/04/05 05:57:11;;;;;;;0.20;0.20;;;;;;;;;;5032682;28;20010;-78
2024/04/05 05:59:37;;;;;;;0.20;0.20;;;;;;;;;;5038420;28;20025;-78
2024/04/05 06:02:04;;;;;;;0.30;0.30;;;;;;;;;;5017594;28;20027;-76
2024/04/05 06:04:30;;;;;;;0.20;0.20;;;;;;;;;;5021589;28;20026;-78
2024/04/05 06:06:57;;;;;;;0.52;0.20;;;;;;;;;;5009810;28;20444;-79
2024/04/05 06:09:23;;;;;;;0.22;0.22;;;;;;;;;;5020182;28;20041;-77
2024/04/05 06:11:51;;;;;;;0.10;0.10;;;;;;;;;;5026174;28;20018;-79
2024/04/05 06:14:17;;;;;;;0.20;0.20;;;;;;;;;;5016600;28;20117;-78
2024/04/05 06:16:44;;;;;;;0.28;0.28;;;;;;;;;;5025232;28;20405;-79
2024/04/05 06:19:10;;;;;;;0.43;0.32;;;;;;;;;;5021421;28;20022;-77
2024/04/05 06:21:37;;;;;;;0.43;0.30;;;;;;;;;;5017737;28;20049;-78
2024/04/05 06:24:03;;;;;;;0.30;0.30;;;;;;;;;;5029437;28;20018;-78
2024/04/05 06:26:29;;;;;;;0.43;0.35;;;;;;;;;;5031314;28;20030;-79
2024/04/05 06:28:56;;;;;;;0.20;0.20;;;;;;;;;;5022232;28;20018;-78
2024/04/05 06:31:22;;;;;;;0.30;0.30;;;;;;;;;;5020556;28;20070;-78
2024/04/05 06:33:48;;;;;;;0.20;0.20;;;;;;;;;;5014185;28;20053;-79
2024/04/05 06:36:14;;;;;;;0.50;0.32;;;;;;;;;;5010300;28;20184;-79
2024/04/05 06:38:40;;;;;;;0.65;0.30;;;;;;;;;;5019578;28;20104;-79
2024/04/05 06:41:07;;;;;;;0.38;0.38;;;;;;;;;;5019015;28;20032;-79
2024/04/05 06:43:33;;;;;;;0.30;0.30;;;;;;;;;;5019650;28;20021;-79
2024/04/05 06:46:03;;;;;;;0.47;0.20;;;;;;;;;;5022042;28;20045;-79
2024/04/05 06:48:30;;;;;;;0.32;0.30;;;;;;;;;;5016173;28;20029;-78
2024/04/05 06:50:56;;;;;;;0.43;0.30;;;;;;;;;;5018472;28;20121;-78
2024/04/05 06:53:27;;;;;;;0.50;0.40;;;;;;;;;;5006510;28;20045;-78
2024/04/05 06:55:53;;;;;;;0.55;0.50;;;;;;;;;;5017741;28;20025;-79
2024/04/05 06:58:19;;;;;;;0.40;0.40;;;;;;;;;;5015078;28;20026;-78
2024/04/05 07:00:46;;;;;;;0.30;0.30;;;;;;;;;;4998098;28;20133;-78
2024/04/05 07:03:13;;;;;;;0.77;0.40;;;;;;;;;;5001810;28;20022;-78
2024/04/05 07:05:40;;;;;;;0.75;0.30;;;;;;;;;;5017986;28;20483;-78
2024/04/05 07:08:09;;;;;;;0.50;0.50;;;;;;;;;;5001996;28;20018;-78
2024/04/05 07:10:39;;;;;;;0.28;0.28;;;;;;;;;;5016339;28;20496;-78
2024/04/05 07:13:05;;;;;;;0.30;0.30;;;;;;;;;;5014850;28;20026;-77
2024/04/05 07:15:31;;;;;;;0.30;0.30;;;;;;;;;;5015479;28;20101;-78
2024/04/05 07:17:58;;;;;;;0.47;0.22;;;;;;;;;;5015941;28;20056;-77
2024/04/05 07:20:25;;;;;;;0.32;0.32;;;;;;;;;;5014884;28;20030;-78
2024/04/05 07:22:52;;;;;;;0.20;0.20;;;;;;;;;;5015782;28;20037;-78
2024/04/05 07:25:22;;;;;;;0.55;0.40;;;;;;;;;;5011966;28;20555;-78
2024/04/05 07:27:51;;;;;;;0.22;0.22;;;;;;;;;;5013617;28;20030;-78
2024/04/05 07:30:24;;;;;;;0.20;0.20;;;;;;;;;;5014380;28;20030;-78
2024/04/05 07:32:51;;;;;;;0.10;0.10;;;;;;;;;;5007297;28;20026;-78
2024/04/05 07:35:17;;;;;;;0.17;0.17;;;;;;;;;;5003066;28;20010;-78
2024/04/05 07:37:47;;;;;;;0.30;0.30;;;;;;;;;;5014592;28;20025;-79
2024/04/05 07:40:18;;;;;;;0.20;0.20;;;;;;;;;;5008035;28;20496;-78
2024/04/05 07:42:48;;;;;;;0.30;0.30;;;;;;;;;;5010998;28;20025;-78
2024/04/05 07:45:14;;;;;;;0.28;0.28;;;;;;;;;;5003014;28;20041;-78
2024/04/05 07:47:40;;;;;;;0.40;0.32;;;;;;;;;;5017256;28;20029;-79
2024/04/05 07:50:07;;;;;;;0.30;0.20;;;;;;;;;;5016744;28;20081;-79
2024/04/05 07:52:33;;;;;;;0.35;0.20;;;;;;;;;;5018016;28;20310;-79
2024/04/05 07:54:59;;;;;;;0.30;0.30;;;;;;;;;;5005491;28;20094;-78
2024/04/05 07:57:25;;;;;;;0.40;0.40;;;;;;;;;;5014114;28;20030;-78
2024/04/05 07:59:51;;;;;;;0.57;0.57;;;;;;;;;;5003888;28;20022;-78
2024/04/05 08:02:20;;;;;;;0.30;0.25;;;;;;;;;;5015913;28;20081;-79
2024/04/05 08:04:46;;;;;;;0.40;0.40;;;;;;;;;;4997226;28;20053;-78
2024/04/05 08:07:12;;;;;;;0.28;0.28;;;;;;;;;;5000759;28;20037;-79
2024/04/05 08:09:38;;;;;;;0.30;0.30;;;;;;;;;;5007903;28;20108;-80
2024/04/05 08:12:05;;;;;;;0.30;0.30;;;;;;;;;;5016165;28;20045;-79
2024/04/05 08:14:31;;;;;;;0.25;0.25;;;;;;;;;;5016903;28;20522;-79
2024/04/05 08:16:58;;;;;;;0.20;0.20;;;;;;;;;;5017843;28;20214;-79
2024/04/05 08:19:24;;;;;;;0.30;0.30;;;;;;;;;;5017395;28;20129;-78
2024/04/05 08:21:51;;;;;;;0.30;0.30;;;;;;;;;;5015595;28;20356;-79
2024/04/05 08:24:18;;;;;;;0.20;0.20;;;;;;;;;;5016602;28;20022;-79
2024/04/05 08:26:45;;;;;;;0.63;0.32;;;;;;;;;;5016926;28;20481;-79
2024/04/05 08:29:11;;;;;;;0.30;0.30;;;;;;;;;;5014801;28;20045;-79
2024/04/05 08:31:38;;;;;;;0.38;0.30;;;;;;;;;;5013488;28;20262;-79
2024/04/05 08:34:04;;;;;;;0.30;0.30;;;;;;;;;;5007019;28;20092;-79
2024/04/05 08:36:30;;;;;;;0.60;0.40;;;;;;;;;;5006562;28;20049;-79
2024/04/05 08:38:57;;;;;;;0.30;0.30;;;;;;;;;;5007109;28;20030;-79
2024/04/05 08:41:29;;;;;;;1.20;0.43;;;;;;;;;;5012793;28;20017;-78
2024/04/05 08:43:56;;;;;;;0.20;0.20;;;;;;;;;;5016457;28;20026;-79
2024/04/05 08:46:22;;;;;;;0.47;0.47;;;;;;;;;;5016854;28;20496;-79
2024/04/05 08:48:49;;;;;;;0.90;0.50;;;;;;;;;;5014438;28;20106;-79
2024/04/05 08:51:15;;;;;;;0.43;0.30;;;;;;;;;;4987487;28;20028;-78
2024/04/05 08:53:42;;;;;;;0.50;0.30;;;;;;;;;;5013387;28;20033;-78
2024/04/05 08:56:08;;;;;;;0.38;0.38;;;;;;;;;;5016776;28;20034;-79
2024/04/05 08:58:34;;;;;;;0.40;0.40;;;;;;;;;;5020005;28;20034;-79
2024/04/05 09:01:01;;;;;;;0.30;0.30;;;;;;;;;;5024235;28;20021;-79
2024/04/05 09:03:27;;;;;;;0.95;0.40;;;;;;;;;;5012220;28;20416;-79
2024/04/05 09:05:55;;;;;;;0.50;0.40;;;;;;;;;;5019962;28;20034;-79
2024/04/05 09:08:21;;;;;;;0.30;0.30;;;;;;;;;;5035208;28;20078;-79
2024/04/05 09:10:51;;;;;;;0.20;0.20;;;;;;;;;;5032387;28;20086;-79
2024/04/05 09:13:17;;;;;;;0.30;0.30;;;;;;;;;;5028670;28;20081;-79
2024/04/05 09:15:44;;;;;;;1.13;0.50;;;;;;;;;;5031393;28;20018;-79
2024/04/05 09:18:10;;;;;;;0.32;0.32;;;;;;;;;;5036428;28;20029;-78
2024/04/05 09:20:36;;;;;;;1.63;0.20;;;;;;;;;;5036910;28;20037;-79
2024/04/05 09:23:04;;;;;;;0.35;0.30;;;;;;;;;;5025499;28;20072;-78
2024/04/05 09:25:30;;;;;;;0.20;0.20;;;;;;;;;;5036150;28;20009;-78
2024/04/05 09:28:20;;;;;;;0.30;0.30;;;;;;;;;;5019265;28;20082;-80
2024/04/05 09:30:48;;;;;;;0.22;0.22;;;;;;;;;;5014433;28;20456;-79
2024/04/05 09:33:20;;;;;;;0.20;0.20;;;;;;;;;;5020479;28;20022;-79
2024/04/05 09:35:47;;;;;;;0.20;0.20;;;;;;;;;;5011714;28;20547;-79
2024/04/05 09:38:13;;;;;;;0.20;0.20;;;;;;;;;;5023661;28;20014;-80
2024/04/05 09:40:43;;;;;;;0.30;0.30;;;;;;;;;;5023024;28;20081;-80
2024/04/05 09:43:09;;;;;;;0.20;0.20;;;;;;;;;;5021197;28;20046;-79
2024/04/05 09:45:36;;;;;;;0.20;0.20;;;;;;;;;;5021037;28;20036;-79
2024/04/05 09:48:03;;;;;;;0.20;0.20;;;;;;;;;;5003151;28;20018;-79
2024/04/05 09:50:30;;;;;;;1.65;0.22;;;;;;;;;;5017477;28;20481;-79
2024/04/05 09:52:56;;;;;;;0.28;0.28;;;;;;;;;;5018072;28;20389;-79
2024/04/05 09:55:23;;;;;;;0.30;0.22;;;;;;;;;;5002245;28;20018;-79
2024/04/05 09:57:52;;;;;;;0.47;0.32;;;;;;;;;;5009384;28;20030;-79
2024/04/05 10:00:21;;;;;;;0.38;0.38;;;;;;;;;;5013526;28;20019;-79
2024/04/05 10:02:53;;;;;;;0.30;0.30;;;;;;;;;;5020071;28;20026;-79
2024/04/05 10:05:30;;;;;;;0.28;0.28;;;;;;;;;;5006801;28;20030;-79
2024/04/05 10:11:06;;;;;;;0.90;0.50;;;;;;;;;;5010782;28;20034;-79
2024/04/05 10:13:32;;;;;;;0.20;0.20;;;;;;;;;;5017193;28;20027;-80
2024/04/05 10:16:01;;;;;;;0.40;0.30;;;;;;;;;;5018245;28;20030;-80
2024/04/05 10:18:36;;;;;;;0.40;0.40;;;;;;;;;;5021748;28;20022;-79
2024/04/05 10:21:04;;;;;;;0.30;0.30;;;;;;;;;;5009177;28;20034;-79
2024/04/05 10:23:32;;;;;;;0.20;0.20;;;;;;;;;;5024412;28;20041;-79
2024/04/05 10:25:58;;;;;;;0.30;0.30;;;;;;;;;;5011755;28;20034;-80
2024/04/05 10:28:24;;;;;;;0.22;0.20;;;;;;;;;;5021396;28;20018;-79
2024/04/05 10:30:50;;;;;;;0.38;0.20;;;;;;;;;;5019869;28;20397;-79
2024/04/05 10:33:18;;;;;;;0.40;0.40;;;;;;;;;;5019080;28;20372;-79
2024/04/05 10:35:45;;;;;;;1.23;0.40;;;;;;;;;;5002204;28;20030;-79
2024/04/05 10:38:11;;;;;;;0.40;0.40;;;;;;;;;;5018260;28;20026;-79
2024/04/05 10:40:40;;;;;;;2.40;0.65;;;;;;;;;;5019573;28;20033;-80
2024/04/05 10:46:02;;;;;;;0.80;0.70;;;;;;;;;;5026230;28;20290;-79
2024/04/05 10:48:30;;;;;;;0.50;0.50;;;;;;;;;;5028300;28;20085;-78
2024/04/05 10:50:58;;;;;;;0.95;0.50;;;;;;;;;;5008259;28;20014;-79
2024/04/05 10:53:24;;;;;;;0.63;0.63;;;;;;;;;;5027163;28;20089;-81
2024/04/05 10:55:53;;;;;;;0.60;0.60;;;;;;;;;;5018086;28;20025;-80
2024/04/05 10:58:19;;;;;;;1.00;0.70;;;;;;;;;;5027954;28;20026;-80
2024/04/05 11:00:46;;;;;;;0.80;0.45;;;;;;;;;;5028619;28;20034;-81
2024/04/05 11:03:22;;;;;;;0.75;0.57;;;;;;;;;;5029762;28;20037;-79
2024/04/05 11:05:49;;;;;;;1.00;0.63;;;;;;;;;;5021523;28;20044;-80
2024/04/05 11:08:16;;;;;;;0.40;0.40;;;;;;;;;;5016660;28;20105;-80
2024/04/05 11:10:51;;;;;;;1.10;0.65;;;;;;;;;;5022859;28;20033;-79
2024/04/05 11:13:18;;;;;;;1.08;0.57;;;;;;;;;;5026870;28;20112;-80
2024/04/05 11:18:45;;;;;;;1.13;0.50;;;;;;;;;;5029618;28;20048;-79
2024/04/05 11:21:16;;;;;;;0.93;0.65;;;;;;;;;;5033804;28;20026;-81
2024/04/05 11:23:55;;;;;;;0.73;0.70;;;;;;;;;;5020230;28;20030;-80
2024/04/05 11:26:31;;;;;;;0.40;0.40;;;;;;;;;;5028775;28;20281;-79
2024/04/05 11:28:58;;;;;;;1.25;0.80;;;;;;;;;;5028156;28;20112;-79
2024/04/05 11:31:26;;;;;;;0.80;0.80;;;;;;;;;;5032163;28;20034;-78
2024/04/05 11:34:01;;;;;;;1.00;0.60;;;;;;;;;;5020963;28;20018;-80
2024/04/05 11:36:27;;;;;;;0.65;0.40;;;;;;;;;;5008093;28;20018;-81
2024/04/05 11:38:54;;;;;;;1.08;0.52;;;;;;;;;;5027966;28;20044;-81
2024/04/05 11:41:20;;;;;;;0.90;0.50;;;;;;;;;;5030747;23;20048;-80
2024/04/05 11:43:47;;;;;;;0.50;0.50;;;;;;;;;;5000824;28;20026;-80
2024/04/05 11:46:13;;;;;;;0.57;0.57;;;;;;;;;;5001836;28;20109;-79
2024/04/05 11:48:39;;;;;;;0.50;0.50;;;;;;;;;;4982144;28;20023;-80
2024/04/05 11:51:06;;;;;;;0.40;0.40;;;;;;;;;;5001717;28;20038;-79
2024/04/05 11:53:33;;;;;;;0.50;0.50;;;;;;;;;;5001347;28;20532;-79
2024/04/05 11:55:59;;;;;;;0.40;0.40;;;;;;;;;;4984010;28;20473;-80
2024/04/05 11:58:25;;;;;;;0.40;0.40;;;;;;;;;;4999778;28;20418;-80
2024/04/05 12:00:51;;;;;;;0.55;0.55;;;;;;;;;;5001108;28;20081;-80
2024/04/05 12:03:18;;;;;;;0.65;0.52;;;;;;;;;;4999084;28;20045;-79
2024/04/05 12:05:45;;;;;;;0.50;0.40;;;;;;;;;;4991841;28;20452;-79
2024/04/05 12:08:12;;;;;;;0.60;0.50;;;;;;;;;;5001266;28;20022;-81
2024/04/05 12:10:38;;;;;;;0.52;0.50;;;;;;;;;;4975597;28;20071;-75
2024/04/05 12:13:04;;;;;;;0.52;0.43;;;;;;;;;;5001428;28;20488;-80
2024/04/05 12:15:31;;;;;;;0.35;0.32;;;;;;;;;;5002110;28;20030;-80
2024/04/05 12:17:58;;;;;;;0.30;0.30;;;;;;;;;;5002062;28;20015;-79
2024/04/05 12:20:24;;;;;;;0.40;0.40;;;;;;;;;;4998609;28;20046;-80
2024/04/05 12:22:51;;;;;;;1.80;0.60;;;;;;;;;;5002077;28;20563;-81
2024/04/05 12:25:17;;;;;;;0.40;0.40;;;;;;;;;;4980930;28;20046;-80
2024/04/05 12:27:44;;;;;;;0.60;0.30;;;;;;;;;;4983144;28;20520;-80
2024/04/05 12:30:10;;;;;;;0.63;0.40;;;;;;;;;;5002746;28;20030;-79
2024/04/05 12:32:37;;;;;;;0.52;0.40;;;;;;;;;;5005737;28;20026;-79
2024/04/05 12:35:04;;;;;;;0.38;0.38;;;;;;;;;;4994017;28;20507;-80
2024/04/05 12:37:30;;;;;;;0.50;0.50;;;;;;;;;;4984296;28;20085;-80
2024/04/05 12:39:57;;;;;;;0.30;0.30;;;;;;;;;;4989830;28;20038;-77
2024/04/05 12:42:23;;;;;;;0.40;0.40;;;;;;;;;;5008264;28;20030;-80
2024/04/05 12:44:50;;;;;;;0.30;0.30;;;;;;;;;;5006477;28;20030;-77
2024/04/05 12:47:16;;;;;;;0.30;0.30;;;;;;;;;;5001870;28;20050;-79
2024/04/05 12:49:42;;;;;;;0.40;0.40;;;;;;;;;;4990843;28;20061;-80
2024/04/05 12:52:12;;;;;;;0.90;0.75;;;;;;;;;;4992037;28;20010;-80
2024/04/05 12:54:38;;;;;;;0.50;0.50;;;;;;;;;;4987910;28;20177;-79
2024/04/05 12:57:04;;;;;;;0.47;0.47;;;;;;;;;;4987667;28;20027;-79
2024/04/05 12:59:30;;;;;;;0.73;0.63;;;;;;;;;;5004649;28;20097;-79
2024/04/05 13:01:57;;;;;;;0.43;0.40;;;;;;;;;;4989507;28;20397;-80
2024/04/05 13:04:23;;;;;;;0.85;0.55;;;;;;;;;;4982490;28;20485;-79
2024/04/05 13:06:50;;;;;;;0.55;0.52;;;;;;;;;;4995409;28;20556;-79
2024/04/05 13:09:16;;;;;;;0.43;0.43;;;;;;;;;;4995810;28;20098;-78
2024/04/05 13:11:43;;;;;;;0.45;0.45;;;;;;;;;;5014418;28;20013;-80
2024/04/05 13:14:09;;;;;;;0.40;0.40;;;;;;;;;;5004463;28;20118;-79
2024/04/05 13:16:36;;;;;;;0.40;0.40;;;;;;;;;;5004719;28;20026;-80
2024/04/05 13:19:02;;;;;;;0.40;0.40;;;;;;;;;;4997662;28;20038;-80
2024/04/05 13:21:29;;;;;;;0.55;0.55;;;;;;;;;;4992445;28;20073;-82
2024/04/05 13:23:55;;;;;;;0.57;0.57;;;;;;;;;;4997784;28;20037;-81
2024/04/05 13:26:22;;;;;;;0.93;0.60;;;;;;;;;;5018487;28;20078;-77
2024/04/05 13:28:49;;;;;;;1.75;0.50;;;;;;;;;;5002633;28;20039;-81
2024/04/05 13:31:16;;;;;;;1.27;0.77;;;;;;;;;;4983163;28;20026;-79
2024/04/05 13:33:43;;;;;;;0.60;0.60;;;;;;;;;;4973867;28;20041;-80
2024/04/05 13:36:10;;;;;;;1.75;0.50;;;;;;;;;;4975784;28;20111;-79
2024/04/05 13:38:37;;;;;;;0.95;0.68;;;;;;;;;;4993805;28;20035;-81
2024/04/05 13:41:03;;;;;;;0.55;0.50;;;;;;;;;;5003119;28;20035;-81
2024/04/05 13:43:29;;;;;;;0.75;0.50;;;;;;;;;;5001983;28;20415;-80
2024/04/05 13:46:06;;;;;;;1.08;0.65;;;;;;;;;;5001608;28;20034;-80
2024/04/05 13:48:33;;;;;;;0.55;0.55;;;;;;;;;;4987041;28;20022;-80
2024/04/05 13:50:59;;;;;;;0.63;0.63;;;;;;;;;;4985143;28;20064;-80
2024/04/05 13:53:26;;;;;;;0.50;0.45;;;;;;;;;;5003762;28;20077;-82
2024/04/05 13:55:52;;;;;;;0.50;0.50;;;;;;;;;;5003291;28;20026;-77
2024/04/05 13:58:18;;;;;;;0.50;0.50;;;;;;;;;;5003958;28;20026;-78
2024/04/05 14:00:45;;;;;;;0.80;0.70;;;;;;;;;;4987786;28;20054;-78
2024/04/05 14:03:11;;;;;;;1.23;0.68;;;;;;;;;;4988574;28;20133;-80
2024/04/05 14:05:38;;;;;;;0.60;0.60;;;;;;;;;;5007271;28;20033;-78
2024/04/05 14:08:04;;;;;;;0.68;0.50;;;;;;;;;;4991102;28;20567;-79
2024/04/05 14:10:34;;;;;;;0.50;0.50;;;;;;;;;;4991363;28;20022;-78
2024/04/05 14:13:01;;;;;;;0.88;0.75;;;;;;;;;;5008407;28;20587;-77
2024/04/05 14:15:27;;;;;;;0.70;0.60;;;;;;;;;;5009335;28;20034;-79
2024/04/05 14:17:53;;;;;;;0.93;0.50;;;;;;;;;;5008607;28;20026;-78
2024/04/05 14:20:19;;;;;;;0.77;0.50;;;;;;;;;;4991540;28;20026;-76
2024/04/05 14:22:45;;;;;;;0.57;0.55;;;;;;;;;;5018254;28;20077;-75
2024/04/05 14:25:11;;;;;;;1.25;0.57;;;;;;;;;;5001444;28;20063;-75
2024/04/05 14:27:38;;;;;;;1.05;0.68;;;;;;;;;;5017221;28;20034;-77
2024/04/05 14:30:04;;;;;;;1.08;0.50;;;;;;;;;;4998785;28;20087;-77
2024/04/05 14:32:30;;;;;;;0.70;0.70;;;;;;;;;;5017235;28;20034;-76
2024/04/05 14:34:56;;;;;;;0.70;0.70;;;;;;;;;;5015937;28;20224;-76
2024/04/05 14:37:23;;;;;;;1.33;0.68;;;;;;;;;;5015060;28;20031;-81
2024/04/05 14:39:53;;;;;;;0.55;0.55;;;;;;;;;;5004467;28;20078;-78
2024/04/05 14:42:19;;;;;;;0.85;0.50;;;;;;;;;;5007512;28;20027;-80
2024/04/05 14:44:56;;;;;;;0.93;0.50;;;;;;;;;;5007215;28;20570;-80
2024/04/05 14:47:22;;;;;;;1.25;0.60;;;;;;;;;;5008607;28;20491;-79
2024/04/05 14:49:49;;;;;;;2.63;0.52;;;;;;;;;;5009846;28;20022;-79